Time;durP1;ratioP1;P1;durP2;ratioP2;P2;SDS_P1;SDS_P2;PMS_P1;PMS_P2;Temp;Humidity;BMP_temperature;BMP_pressure;BME280_temperature;BME280_humidity;BME280_pressure;Samples;Min_cycle;Max_cycle;Signal;HPM_P1;HPM_P2
2022/06/09 00:01:40;;;;;;;5.55;2.40;;;21.80;99.90;;;;;;4247483;27;20907;-78
2022/06/09 00:03:48;;;;;;;6.32;2.42;;;21.80;99.90;;;;;;4246195;27;20237;-78
2022/06/09 00:05:51;;;;;;;5.68;2.47;;;21.80;99.90;;;;;;4247285;27;20273;-78
2022/06/09 00:07:56;;;;;;;5.90;2.25;;;21.80;99.90;;;;;;4245481;27;20217;-78
2022/06/09 00:10:03;;;;;;;6.65;2.38;;;21.80;99.90;;;;;;4244838;27;20738;-78
2022/06/09 00:12:06;;;;;;;6.97;2.35;;;21.80;99.90;;;;;;4245940;27;20706;-78
2022/06/09 00:14:09;;;;;;;7.00;2.55;;;21.70;99.90;;;;;;4246919;27;20213;-78
2022/06/09 00:16:14;;;;;;;4.50;2.20;;;21.80;99.90;;;;;;4247304;27;20285;-78
2022/06/09 00:18:17;;;;;;;10.27;2.83;;;21.80;99.90;;;;;;4245747;27;20242;-78
2022/06/09 00:20:19;;;;;;;7.00;2.40;;;21.70;99.90;;;;;;4247761;27;20216;-77
2022/06/09 00:22:21;;;;;;;9.13;3.10;;;21.70;99.90;;;;;;4245893;27;20217;-78
2022/06/09 00:24:24;;;;;;;5.88;2.70;;;21.70;99.90;;;;;;4244918;27;21060;-78
2022/06/09 00:26:26;;;;;;;5.25;2.53;;;21.80;99.90;;;;;;4242979;27;20255;-78
2022/06/09 00:28:29;;;;;;;4.38;2.47;;;21.80;99.90;;;;;;4246472;27;20267;-78
2022/06/09 00:30:31;;;;;;;6.68;2.58;;;21.70;99.90;;;;;;4245022;27;20217;-78
2022/06/09 00:32:35;;;;;;;7.75;2.88;;;21.70;99.90;;;;;;4244963;27;20222;-78
2022/06/09 00:34:37;;;;;;;6.85;2.58;;;21.70;99.90;;;;;;4243864;27;20209;-78
2022/06/09 00:36:39;;;;;;;7.50;2.72;;;21.70;99.90;;;;;;4245878;27;20746;-78
2022/06/09 00:38:42;;;;;;;5.20;2.22;;;21.70;99.90;;;;;;4246346;27;20254;-78
2022/06/09 00:40:45;;;;;;;5.90;2.42;;;21.70;99.90;;;;;;4244526;27;20615;-77
2022/06/09 00:42:47;;;;;;;5.15;2.30;;;21.70;99.90;;;;;;4243503;27;20643;-77
2022/06/09 00:44:49;;;;;;;8.43;2.50;;;21.70;99.90;;;;;;4244427;27;20275;-78
2022/06/09 00:46:57;;;;;;;5.70;2.63;;;21.70;99.90;;;;;;4244360;27;20218;-78
2022/06/09 00:49:04;;;;;;;5.50;2.67;;;21.70;99.90;;;;;;4245952;27;20216;-77
2022/06/09 00:51:28;;;;;;;8.32;2.70;;;21.70;99.90;;;;;;4245913;27;20999;-77
2022/06/09 00:53:35;;;;;;;7.70;2.45;;;21.70;99.90;;;;;;4246651;27;20262;-78
2022/06/09 00:55:38;;;;;;;6.28;2.38;;;21.70;99.90;;;;;;4244865;27;20595;-77
2022/06/09 00:57:44;;;;;;;6.03;2.60;;;21.70;99.90;;;;;;4244224;27;20267;-78
2022/06/09 00:59:51;;;;;;;5.95;2.50;;;21.70;99.90;;;;;;4242968;27;20213;-78
2022/06/09 01:01:54;;;;;;;9.05;2.90;;;21.70;99.90;;;;;;4246950;27;20661;-77
2022/06/09 01:04:02;;;;;;;8.65;2.70;;;21.70;99.90;;;;;;4246179;27;20531;-78
2022/06/09 01:06:07;;;;;;;5.45;2.47;;;21.70;99.90;;;;;;4244648;27;20209;-78
2022/06/09 01:08:11;;;;;;;5.88;2.65;;;21.60;99.90;;;;;;4245684;27;20270;-78
2022/06/09 01:10:14;;;;;;;6.00;2.20;;;21.60;99.90;;;;;;4244919;27;20233;-77
2022/06/09 01:12:26;;;;;;;6.00;2.28;;;21.60;99.90;;;;;;4245455;27;20281;-78
2022/06/09 01:14:31;;;;;;;6.97;2.75;;;21.60;99.90;;;;;;4242110;27;20626;-78
2022/06/09 01:16:45;;;;;;;7.53;2.90;;;21.60;99.90;;;;;;4244128;27;20266;-78
2022/06/09 01:18:58;;;;;;;7.75;2.85;;;21.60;99.90;;;;;;4245651;27;20216;-77
2022/06/09 01:21:10;;;;;;;6.53;2.65;;;21.60;99.90;;;;;;4242727;27;20217;-78
2022/06/09 01:23:45;;;;;;;4.97;2.03;;;21.60;99.90;;;;;;4245530;27;20221;-78
2022/06/09 01:26:16;;;;;;;7.45;2.72;;;21.60;99.90;;;;;;4243052;27;20229;-78
2022/06/09 01:28:40;;;;;;;6.40;2.70;;;21.60;99.90;;;;;;4243829;27;20213;-79
2022/06/09 01:30:49;;;;;;;9.00;2.90;;;21.60;99.90;;;;;;4245804;27;20254;-78
2022/06/09 01:32:59;;;;;;;7.53;2.90;;;21.60;99.90;;;;;;4243806;27;20261;-78
2022/06/09 01:35:11;;;;;;;7.18;2.70;;;21.60;99.90;;;;;;4242388;27;20209;-78
2022/06/09 01:37:16;;;;;;;4.68;2.47;;;21.60;99.90;;;;;;4244072;27;20282;-78
2022/06/09 01:39:27;;;;;;;6.85;2.85;;;21.60;99.90;;;;;;4245276;27;20221;-78
2022/06/09 01:41:30;;;;;;;7.05;2.58;;;21.60;99.90;;;;;;4243432;27;20221;-78
2022/06/09 01:43:32;;;;;;;7.22;2.80;;;21.60;99.90;;;;;;4245360;27;20618;-78
2022/06/09 01:45:45;;;;;;;7.28;2.53;;;21.60;99.90;;;;;;4245069;27;20217;-77
2022/06/09 01:47:53;;;;;;;6.90;3.03;;;21.60;99.90;;;;;;4240894;27;20204;-78
2022/06/09 01:49:58;;;;;;;5.38;2.60;;;21.50;99.90;;;;;;4244504;27;20209;-77
2022/06/09 01:52:03;;;;;;;5.50;2.65;;;21.60;99.90;;;;;;4245946;27;20617;-78
2022/06/09 01:54:10;;;;;;;6.30;2.90;;;21.60;99.90;;;;;;4245217;27;20278;-78
2022/06/09 01:56:19;;;;;;;9.05;2.47;;;21.50;99.90;;;;;;4244647;27;20205;-78
2022/06/09 01:58:27;;;;;;;4.63;2.05;;;21.50;99.90;;;;;;4242977;27;20220;-78
2022/06/09 02:00:30;;;;;;;5.07;2.63;;;21.60;99.90;;;;;;4244131;27;20717;-78
2022/06/09 02:02:37;;;;;;;6.45;2.55;;;21.60;99.90;;;;;;4244033;27;20217;-78
2022/06/09 02:04:45;;;;;;;8.18;2.80;;;21.50;99.90;;;;;;4244366;27;20274;-78
2022/06/09 02:06:49;;;;;;;6.35;2.53;;;21.60;99.90;;;;;;4243240;27;20212;-78
2022/06/09 02:08:52;;;;;;;6.78;2.70;;;21.60;99.90;;;;;;4245011;27;20635;-78
2022/06/09 02:10:59;;;;;;;8.32;2.55;;;21.60;99.90;;;;;;4245108;27;20281;-78
2022/06/09 02:13:04;;;;;;;5.35;2.17;;;21.50;99.90;;;;;;4241376;27;20267;-77
2022/06/09 02:15:09;;;;;;;5.80;2.60;;;21.50;99.90;;;;;;4245530;27;20293;-78
2022/06/09 02:17:12;;;;;;;7.82;2.70;;;21.60;99.90;;;;;;4244315;27;20298;-77
2022/06/09 02:19:14;;;;;;;8.52;2.65;;;21.60;99.90;;;;;;4244265;27;20221;-78
2022/06/09 02:21:21;;;;;;;6.20;2.35;;;21.50;99.90;;;;;;4245547;27;20221;-78
2022/06/09 02:23:24;;;;;;;7.32;2.80;;;21.50;99.90;;;;;;4242699;27;20209;-77
2022/06/09 02:25:26;;;;;;;8.55;2.90;;;21.50;99.90;;;;;;4244779;27;20337;-78
2022/06/09 02:27:28;;;;;;;7.40;2.72;;;21.50;99.90;;;;;;4244953;27;20255;-78
2022/06/09 02:29:31;;;;;;;6.43;2.70;;;21.50;99.90;;;;;;4243319;28;20212;-77
2022/06/09 02:31:33;;;;;;;6.45;2.60;;;21.50;99.90;;;;;;4244609;28;20265;-77
2022/06/09 02:33:35;;;;;;;8.93;2.80;;;21.50;99.90;;;;;;4244446;28;20278;-78
2022/06/09 02:35:38;;;;;;;5.15;2.60;;;21.50;99.90;;;;;;4244110;28;20637;-78
2022/06/09 02:37:41;;;;;;;6.38;2.78;;;21.50;99.90;;;;;;4241595;28;20233;-78
2022/06/09 02:39:44;;;;;;;5.85;2.60;;;21.50;99.90;;;;;;4244791;28;20270;-78
2022/06/09 02:41:46;;;;;;;7.25;2.50;;;21.50;99.90;;;;;;4243559;28;20293;-78
2022/06/09 02:43:48;;;;;;;7.68;2.85;;;21.50;99.90;;;;;;4242132;28;20620;-77
2022/06/09 02:45:51;;;;;;;7.53;2.60;;;21.50;99.90;;;;;;4244242;27;20257;-78
2022/06/09 02:47:54;;;;;;;8.88;3.05;;;21.50;99.90;;;;;;4245907;28;20209;-78
2022/06/09 02:49:56;;;;;;;8.30;2.72;;;21.50;99.90;;;;;;4244979;28;20265;-78
2022/06/09 02:51:58;;;;;;;6.65;2.53;;;21.50;99.90;;;;;;4244825;28;20212;-78
2022/06/09 02:54:04;;;;;;;9.20;3.13;;;21.50;99.90;;;;;;4244412;28;20677;-78
2022/06/09 02:56:07;;;;;;;6.70;3.03;;;21.50;99.90;;;;;;4244115;28;20209;-78
2022/06/09 02:58:09;;;;;;;7.32;2.85;;;21.50;99.90;;;;;;4244277;27;20245;-77
2022/06/09 03:00:15;;;;;;;7.82;2.50;;;21.50;99.90;;;;;;4245963;27;20217;-78
2022/06/09 03:02:18;;;;;;;6.80;2.78;;;21.50;99.90;;;;;;4246213;27;20265;-78
2022/06/09 03:04:20;;;;;;;7.25;2.67;;;21.50;99.90;;;;;;4245493;27;20213;-78
2022/06/09 03:06:22;;;;;;;8.80;3.15;;;21.50;99.90;;;;;;4247398;27;20220;-78
2022/06/09 03:08:26;;;;;;;8.63;2.78;;;21.50;99.90;;;;;;4246584;27;20221;-77
2022/06/09 03:10:29;;;;;;;8.82;3.53;;;21.50;99.90;;;;;;4245464;27;20619;-78
2022/06/09 03:12:32;;;;;;;6.85;2.78;;;21.50;99.90;;;;;;4248289;27;20277;-78
2022/06/09 03:14:34;;;;;;;6.72;3.00;;;21.50;99.90;;;;;;4245687;27;20289;-73
2022/06/09 03:16:37;;;;;;;8.32;2.97;;;21.50;99.90;;;;;;4244979;27;20209;-71
2022/06/09 03:18:39;;;;;;;7.18;2.83;;;21.50;99.90;;;;;;4243828;27;20237;-72
2022/06/09 03:20:42;;;;;;;6.57;2.58;;;21.40;99.90;;;;;;4244993;27;20213;-71
2022/06/09 03:22:44;;;;;;;8.45;2.72;;;21.40;99.90;;;;;;4241327;27;20217;-72
2022/06/09 03:24:46;;;;;;;6.95;3.05;;;21.50;99.90;;;;;;4245124;27;20217;-72
2022/06/09 03:26:50;;;;;;;6.57;2.92;;;21.50;99.90;;;;;;4244490;27;20261;-72
2022/06/09 03:28:52;;;;;;;6.38;2.40;;;21.50;99.90;;;;;;4245722;27;20209;-72
2022/06/09 03:30:55;;;;;;;7.18;2.88;;;21.40;99.90;;;;;;4244639;27;20229;-72
2022/06/09 03:32:58;;;;;;;6.30;2.53;;;21.40;99.90;;;;;;4244319;27;20724;-71
2022/06/09 03:35:00;;;;;;;7.43;2.92;;;21.50;99.90;;;;;;4243621;27;20213;-71
2022/06/09 03:37:03;;;;;;;6.70;2.70;;;21.40;99.90;;;;;;4244826;27;20255;-71
2022/06/09 03:39:05;;;;;;;6.70;2.88;;;21.40;99.90;;;;;;4243989;27;20229;-77
2022/06/09 03:41:08;;;;;;;7.60;2.60;;;21.40;99.90;;;;;;4246810;27;20225;-78
2022/06/09 03:43:11;;;;;;;6.60;2.72;;;21.40;99.90;;;;;;4245876;27;20258;-78
2022/06/09 03:45:14;;;;;;;8.52;2.97;;;21.40;99.90;;;;;;4245596;27;20605;-78
2022/06/09 03:47:17;;;;;;;6.60;2.88;;;21.50;99.90;;;;;;4246512;27;20689;-78
2022/06/09 03:49:19;;;;;;;7.70;2.80;;;21.40;99.90;;;;;;4245602;27;20274;-78
2022/06/09 03:51:21;;;;;;;9.30;2.95;;;21.40;99.90;;;;;;4245249;27;20225;-78
2022/06/09 03:53:24;;;;;;;7.95;3.00;;;21.40;99.90;;;;;;4245590;27;20217;-78
2022/06/09 03:55:26;;;;;;;7.30;2.63;;;21.40;99.90;;;;;;4245633;27;20225;-78
2022/06/09 03:57:29;;;;;;;7.45;2.97;;;21.40;99.90;;;;;;4245884;27;20245;-78
2022/06/09 03:59:33;;;;;;;7.32;2.80;;;21.40;99.90;;;;;;4246424;27;20286;-78
2022/06/09 04:01:35;;;;;;;7.05;2.60;;;21.40;99.90;;;;;;4245783;27;20217;-77
2022/06/09 04:03:37;;;;;;;7.30;2.90;;;21.40;99.90;;;;;;4245627;27;20213;-78
2022/06/09 04:05:40;;;;;;;8.55;3.33;;;21.40;99.90;;;;;;4244676;27;20235;-78
2022/06/09 04:07:43;;;;;;;8.70;2.78;;;21.40;99.90;;;;;;4245588;27;20212;-78
2022/06/09 04:09:45;;;;;;;6.95;2.45;;;21.40;99.90;;;;;;4245240;27;20266;-77
2022/06/09 04:11:49;;;;;;;6.95;2.55;;;21.40;99.90;;;;;;4244041;27;20229;-78
2022/06/09 04:13:51;;;;;;;7.50;2.78;;;21.40;99.90;;;;;;4246183;27;20213;-78
2022/06/09 04:15:55;;;;;;;8.05;2.65;;;21.40;99.90;;;;;;4245801;27;20217;-78
2022/06/09 04:17:58;;;;;;;7.35;3.05;;;21.40;99.90;;;;;;4245810;27;20232;-78
2022/06/09 04:20:00;;;;;;;7.55;3.13;;;21.30;99.90;;;;;;4245840;27;20614;-78
2022/06/09 04:22:02;;;;;;;8.07;2.50;;;21.40;99.90;;;;;;4245509;27;20213;-78
2022/06/09 04:24:05;;;;;;;7.90;2.90;;;21.40;99.90;;;;;;4246123;27;20258;-78
2022/06/09 04:26:07;;;;;;;5.95;2.72;;;21.40;99.90;;;;;;4245695;27;20622;-78
2022/06/09 04:28:10;;;;;;;6.82;2.85;;;21.40;99.90;;;;;;4244697;27;20650;-78
2022/06/09 04:30:14;;;;;;;6.43;2.83;;;21.40;99.90;;;;;;4245879;27;20217;-78
2022/06/09 04:32:18;;;;;;;6.13;2.85;;;21.40;99.90;;;;;;4245957;27;20661;-78
2022/06/09 04:34:20;;;;;;;8.02;2.83;;;21.40;99.90;;;;;;4245915;27;20266;-78
2022/06/09 04:36:22;;;;;;;5.43;2.42;;;21.30;99.90;;;;;;4246054;27;20247;-78
2022/06/09 04:38:24;;;;;;;7.00;2.97;;;21.40;99.90;;;;;;4245543;27;20310;-79
2022/06/09 04:40:27;;;;;;;8.60;2.80;;;21.40;99.90;;;;;;4244605;27;20225;-78
2022/06/09 04:42:30;;;;;;;8.00;2.80;;;21.40;99.90;;;;;;4245624;27;20218;-78
2022/06/09 04:44:32;;;;;;;7.50;2.70;;;21.40;99.90;;;;;;4245882;27;20289;-78
2022/06/09 04:46:34;;;;;;;6.82;2.95;;;21.40;99.90;;;;;;4244797;27;20657;-78
2022/06/09 04:48:38;;;;;;;7.20;2.67;;;21.40;99.90;;;;;;4245565;27;20600;-78
2022/06/09 04:50:43;;;;;;;6.57;3.00;;;21.40;99.90;;;;;;4244970;27;20221;-78
2022/06/09 04:52:46;;;;;;;7.60;3.15;;;21.40;99.90;;;;;;4245625;27;20529;-78
2022/06/09 04:54:48;;;;;;;10.30;3.45;;;21.30;99.90;;;;;;4245081;27;20613;-78
2022/06/09 04:56:50;;;;;;;8.20;2.75;;;21.30;99.90;;;;;;4243896;27;20213;-78
2022/06/09 04:58:53;;;;;;;7.93;3.15;;;21.40;99.90;;;;;;4245329;27;20244;-78
2022/06/09 05:00:55;;;;;;;6.07;2.90;;;21.40;99.90;;;;;;4245507;27;20209;-78
2022/06/09 05:02:59;;;;;;;10.38;2.72;;;21.40;99.90;;;;;;4244465;27;20281;-78
2022/06/09 05:05:03;;;;;;;6.85;2.80;;;21.40;99.90;;;;;;4245654;27;20225;-78
2022/06/09 05:07:05;;;;;;;7.63;2.92;;;21.40;99.90;;;;;;4245222;27;20289;-78
2022/06/09 05:09:07;;;;;;;7.07;2.65;;;21.40;99.90;;;;;;4242822;27;20233;-78
2022/06/09 05:11:10;;;;;;;8.27;2.63;;;21.40;99.90;;;;;;4241421;27;20213;-78
2022/06/09 05:13:13;;;;;;;6.10;2.80;;;21.40;99.90;;;;;;4243593;27;20217;-78
2022/06/09 05:15:18;;;;;;;6.65;2.63;;;21.40;99.90;;;;;;4243999;27;20213;-78
2022/06/09 05:17:21;;;;;;;7.03;2.97;;;21.40;99.90;;;;;;4244899;27;20238;-78
2022/06/09 05:19:23;;;;;;;7.28;2.60;;;21.40;99.90;;;;;;4242189;27;20244;-78
2022/06/09 05:21:27;;;;;;;6.38;2.53;;;21.40;99.90;;;;;;4243810;27;20258;-78
2022/06/09 05:23:30;;;;;;;9.18;2.80;;;21.40;99.90;;;;;;4244115;27;20685;-78
2022/06/09 05:25:33;;;;;;;8.70;2.97;;;21.40;99.90;;;;;;4244396;27;20209;-79
2022/06/09 05:27:35;;;;;;;9.43;2.72;;;21.40;99.90;;;;;;4242866;27;20214;-78
2022/06/09 05:29:38;;;;;;;7.47;2.90;;;21.40;99.90;;;;;;4244514;27;20213;-78
2022/06/09 05:31:40;;;;;;;7.07;2.75;;;21.40;99.90;;;;;;4244152;27;20213;-78
2022/06/09 05:33:42;;;;;;;6.68;2.85;;;21.40;99.90;;;;;;4244937;27;20261;-78
2022/06/09 05:35:45;;;;;;;6.03;2.78;;;21.40;99.90;;;;;;4244524;27;20257;-78
2022/06/09 05:44:54;;;;;;;8.65;2.83;;;21.40;99.90;;;;;;4244602;27;20212;-78
2022/06/09 05:46:57;;;;;;;6.72;2.72;;;21.40;99.90;;;;;;4243656;27;20631;-78
2022/06/09 05:49:00;;;;;;;7.70;3.15;;;21.40;99.90;;;;;;4244017;27;20216;-78
2022/06/09 05:51:03;;;;;;;6.90;2.95;;;21.40;99.90;;;;;;4243326;27;20222;-78
2022/06/09 05:53:06;;;;;;;6.35;2.53;;;21.40;99.90;;;;;;4241567;27;20626;-79
2022/06/09 05:55:10;;;;;;;9.57;3.05;;;21.40;99.90;;;;;;4242896;27;20225;-78
2022/06/09 05:57:12;;;;;;;7.70;2.70;;;21.40;99.90;;;;;;4243580;27;20213;-78
2022/06/09 05:59:14;;;;;;;6.18;2.92;;;21.40;99.90;;;;;;4242107;27;20237;-78
2022/06/09 06:01:17;;;;;;;8.07;2.67;;;21.40;99.90;;;;;;4242599;27;20212;-78
2022/06/09 06:03:20;;;;;;;9.13;2.88;;;21.40;99.90;;;;;;4244530;27;20661;-78
2022/06/09 06:07:42;;;;;;;8.52;2.97;;;21.40;99.90;;;;;;4242385;27;20190;-79
2022/06/09 06:09:45;;;;;;;8.18;2.83;;;21.40;99.90;;;;;;4241267;27;20633;-79
2022/06/09 06:11:48;;;;;;;7.03;2.78;;;21.50;99.90;;;;;;4243539;27;20254;-79
2022/06/09 06:13:51;;;;;;;6.13;2.92;;;21.40;99.90;;;;;;4243698;27;20626;-79
2022/06/09 06:15:53;;;;;;;5.80;2.42;;;21.40;99.90;;;;;;4243398;27;20209;-79
2022/06/09 06:17:56;;;;;;;7.75;2.80;;;21.50;99.90;;;;;;4243585;27;20209;-79
2022/06/09 06:19:59;;;;;;;6.22;2.70;;;21.50;99.90;;;;;;4242858;27;20244;-79
2022/06/09 06:22:01;;;;;;;7.28;3.08;;;21.50;99.90;;;;;;4240722;27;20209;-79
2022/06/09 06:24:05;;;;;;;4.82;2.10;;;21.50;99.90;;;;;;4243526;27;20261;-79
2022/06/09 06:26:10;;;;;;;7.53;2.45;;;21.50;99.90;;;;;;4243981;27;20225;-79
2022/06/09 06:28:13;;;;;;;7.88;2.60;;;21.50;99.90;;;;;;4242871;27;20220;-79
2022/06/09 06:30:15;;;;;;;5.88;2.80;;;21.50;99.90;;;;;;4243483;27;20225;-79
2022/06/09 06:32:17;;;;;;;5.05;2.65;;;21.50;99.90;;;;;;4243522;28;20217;-79
2022/06/09 06:34:20;;;;;;;9.15;2.95;;;21.50;99.90;;;;;;4243588;27;20224;-79
2022/06/09 06:36:22;;;;;;;7.53;2.70;;;21.50;99.90;;;;;;4243121;28;20222;-79
2022/06/09 06:38:25;;;;;;;7.28;3.03;;;21.50;99.90;;;;;;4241854;28;20213;-79
2022/06/09 06:40:27;;;;;;;7.07;2.55;;;21.60;99.90;;;;;;4242325;28;20333;-79
2022/06/09 06:42:31;;;;;;;6.15;2.65;;;21.50;99.90;;;;;;4243335;28;20357;-79
2022/06/09 06:44:34;;;;;;;7.82;2.58;;;21.50;99.90;;;;;;4242528;28;20213;-79
2022/06/09 06:46:36;;;;;;;5.57;3.00;;;21.60;99.90;;;;;;4243326;28;20217;-79
2022/06/09 06:48:38;;;;;;;6.80;2.42;;;21.60;99.90;;;;;;4243153;28;20269;-79
2022/06/09 06:50:41;;;;;;;7.00;2.85;;;21.60;99.90;;;;;;4243710;28;20537;-79
2022/06/09 06:52:43;;;;;;;6.78;3.00;;;21.60;99.90;;;;;;4242742;28;20266;-79
2022/06/09 06:54:46;;;;;;;6.75;2.72;;;21.60;99.90;;;;;;4241446;28;20286;-78
2022/06/09 06:56:48;;;;;;;10.20;2.95;;;21.60;99.90;;;;;;4239296;28;20209;-79
2022/06/09 06:58:52;;;;;;;12.75;3.67;;;21.50;99.90;;;;;;4240383;27;20204;-78
2022/06/09 07:00:54;;;;;;;16.45;3.90;;;21.10;99.90;;;;;;4235465;28;20217;-79
2022/06/09 07:02:56;;;;;;;18.67;3.92;;;20.90;99.90;;;;;;4241687;28;20214;-78
2022/06/09 07:04:59;;;;;;;13.18;3.40;;;20.60;99.90;;;;;;4239097;28;21592;-79
2022/06/09 07:07:01;;;;;;;14.38;3.90;;;20.50;99.90;;;;;;4240206;27;20262;-79
2022/06/09 07:09:04;;;;;;;14.15;3.80;;;20.50;99.90;;;;;;4243217;28;20708;-79
2022/06/09 07:11:07;;;;;;;18.90;3.97;;;20.50;99.90;;;;;;4236513;27;20267;-80
2022/06/09 07:13:09;;;;;;;13.82;3.78;;;20.40;99.90;;;;;;4237251;27;20220;-78
2022/06/09 07:15:15;;;;;;;18.70;3.85;;;20.50;99.90;;;;;;4241443;27;20225;-78
2022/06/09 07:17:17;;;;;;;17.25;4.13;;;20.40;99.90;;;;;;4242893;28;20229;-80
2022/06/09 07:19:20;;;;;;;17.65;3.33;;;20.50;99.90;;;;;;4244162;28;20244;-81
2022/06/09 07:21:22;;;;;;;17.45;3.95;;;20.60;99.90;;;;;;4240054;27;20610;-81
2022/06/09 07:23:26;;;;;;;11.13;3.30;;;20.60;99.90;;;;;;4241466;28;20205;-80
2022/06/09 07:25:29;;;;;;;13.90;4.18;;;20.60;99.90;;;;;;4240475;27;20318;-79
2022/06/09 07:27:32;;;;;;;19.13;4.20;;;20.60;99.90;;;;;;4241809;27;20225;-78
2022/06/09 07:29:35;;;;;;;14.82;3.72;;;20.50;99.90;;;;;;4233964;27;20201;-79
2022/06/09 07:31:38;;;;;;;13.90;3.72;;;20.40;99.90;;;;;;4235003;27;20254;-80
2022/06/09 07:33:41;;;;;;;14.68;3.70;;;20.40;99.90;;;;;;4239502;27;20209;-81
2022/06/09 07:35:44;;;;;;;23.42;4.35;;;20.40;99.90;;;;;;4238034;27;20333;-82
2022/06/09 07:37:46;;;;;;;14.88;3.70;;;20.20;99.90;;;;;;4240466;27;20214;-84
2022/06/09 07:39:48;;;;;;;16.73;3.70;;;20.20;99.90;;;;;;4238094;27;20237;-80
2022/06/09 07:41:51;;;;;;;13.45;3.65;;;20.40;99.90;;;;;;4235549;27;20261;-80
2022/06/09 07:43:53;;;;;;;10.52;3.10;;;20.40;99.90;;;;;;4235703;27;20221;-78
2022/06/09 07:45:56;;;;;;;17.77;3.92;;;20.50;99.90;;;;;;4232809;27;20357;-79
2022/06/09 07:48:01;;;;;;;18.92;3.83;;;20.50;99.90;;;;;;4236658;27;20270;-78
2022/06/09 07:50:04;;;;;;;13.65;3.38;;;20.40;99.90;;;;;;4244659;27;20210;-78
2022/06/09 07:52:06;;;;;;;15.85;3.92;;;20.40;99.90;;;;;;4239625;27;20825;-81
2022/06/09 07:54:09;;;;;;;13.07;3.88;;;20.40;99.90;;;;;;4241624;27;20323;-79
2022/06/09 07:56:11;;;;;;;18.55;4.03;;;20.60;99.90;;;;;;4238169;27;20571;-81
2022/06/09 07:58:14;;;;;;;11.75;3.42;;;20.50;99.90;;;;;;4235485;27;20247;-80
2022/06/09 08:00:17;;;;;;;14.68;3.58;;;20.50;99.90;;;;;;4240855;27;20233;-81
2022/06/09 08:02:20;;;;;;;13.45;3.47;;;20.60;99.90;;;;;;4237124;27;20245;-80
2022/06/09 08:04:23;;;;;;;11.70;3.45;;;20.60;99.90;;;;;;4239354;27;20633;-81
2022/06/09 08:06:26;;;;;;;10.15;3.45;;;20.60;99.90;;;;;;4238981;27;20262;-80
2022/06/09 08:08:28;;;;;;;17.95;4.28;;;20.50;99.90;;;;;;4231202;27;20214;-76
2022/06/09 08:10:31;;;;;;;15.90;3.72;;;20.60;99.90;;;;;;4236459;27;20277;-79
2022/06/09 08:12:34;;;;;;;12.52;3.38;;;20.60;99.90;;;;;;4238394;27;20261;-76
2022/06/09 08:14:36;;;;;;;13.05;3.83;;;20.60;99.90;;;;;;4243591;27;20263;-76
2022/06/09 08:16:39;;;;;;;14.20;3.28;;;20.60;99.90;;;;;;4236340;27;20209;-77
2022/06/09 08:18:41;;;;;;;11.15;3.15;;;20.60;99.90;;;;;;4238369;27;20213;-77
2022/06/09 08:20:45;;;;;;;13.57;3.22;;;20.60;99.90;;;;;;4236848;27;20261;-74
2022/06/09 08:22:48;;;;;;;14.88;3.30;;;20.60;99.90;;;;;;4239887;27;21726;-76
2022/06/09 08:24:50;;;;;;;15.38;3.47;;;20.70;99.90;;;;;;4239933;27;20262;-76
2022/06/09 08:26:52;;;;;;;31.30;4.18;;;20.70;99.90;;;;;;4231574;27;20217;-76
2022/06/09 08:28:55;;;;;;;14.73;3.50;;;20.70;99.90;;;;;;4237090;27;20220;-74
2022/06/09 08:30:58;;;;;;;15.18;3.35;;;20.80;99.90;;;;;;4239751;27;20239;-74
2022/06/09 08:33:00;;;;;;;8.68;2.78;;;20.80;99.90;;;;;;4241188;27;20270;-75
2022/06/09 08:35:05;;;;;;;14.02;3.60;;;20.80;99.90;;;;;;4239273;27;20347;-76
2022/06/09 08:37:08;;;;;;;13.23;3.60;;;20.80;99.90;;;;;;4242685;27;20220;-79
2022/06/09 08:39:11;;;;;;;14.05;3.25;;;20.80;99.90;;;;;;4241455;27;20221;-76
2022/06/09 08:41:29;;;;;;;10.73;3.22;;;20.80;99.90;;;;;;4242700;27;20236;-77
2022/06/09 08:43:40;;;;;;;13.23;3.17;;;20.90;99.90;;;;;;4238647;27;20285;-77
2022/06/09 08:45:44;;;;;;;10.73;2.97;;;20.90;99.90;;;;;;4243404;27;20216;-75
2022/06/09 08:47:49;;;;;;;10.77;3.38;;;21.00;99.90;;;;;;4244553;27;20653;-76
2022/06/09 08:50:00;;;;;;;12.82;3.08;;;21.00;99.90;;;;;;4244494;27;20306;-76
2022/06/09 08:52:06;;;;;;;11.55;3.20;;;21.20;99.90;;;;;;4240331;27;20210;-75
2022/06/09 08:54:16;;;;;;;11.82;3.25;;;21.40;99.90;;;;;;4237563;27;20258;-75
2022/06/09 08:56:21;;;;;;;10.50;3.15;;;21.50;99.90;;;;;;4241447;27;20277;-73
2022/06/09 08:58:31;;;;;;;12.73;3.03;;;21.60;99.90;;;;;;4239905;27;21643;-72
2022/06/09 09:00:38;;;;;;;9.27;3.13;;;21.70;99.90;;;;;;4238336;27;21090;-74
2022/06/09 09:02:44;;;;;;;9.52;3.17;;;21.70;99.90;;;;;;4237126;27;20217;-76
2022/06/09 09:04:53;;;;;;;11.82;3.05;;;21.80;99.90;;;;;;4242524;27;20290;-76
2022/06/09 09:07:02;;;;;;;8.40;2.90;;;21.70;99.90;;;;;;4241630;27;20268;-75
2022/06/09 09:09:14;;;;;;;9.25;3.00;;;21.80;99.90;;;;;;4240087;27;20272;-75
2022/06/09 09:11:28;;;;;;;14.18;3.53;;;21.80;99.90;;;;;;4236207;27;20218;-77
2022/06/09 09:13:41;;;;;;;11.88;2.75;;;21.90;99.90;;;;;;4239438;27;20222;-77
2022/06/09 09:15:47;;;;;;;9.23;2.75;;;21.90;99.90;;;;;;4241310;27;20254;-81
2022/06/09 09:17:57;;;;;;;12.55;2.90;;;21.90;99.90;;;;;;4239586;27;20217;-76
2022/06/09 09:20:05;;;;;;;7.85;2.58;;;21.90;99.90;;;;;;4239210;27;20212;-79
2022/06/09 09:22:18;;;;;;;12.43;3.20;;;22.00;99.90;;;;;;4236680;27;20205;-78
2022/06/09 09:24:29;;;;;;;11.48;2.70;;;22.00;99.90;;;;;;4237812;27;20225;-77
2022/06/09 09:26:48;;;;;;;10.25;2.83;;;22.00;99.90;;;;;;4240554;27;20217;-77
2022/06/09 09:28:54;;;;;;;15.07;3.30;;;22.00;99.90;;;;;;4240435;27;20213;-78
2022/06/09 09:31:02;;;;;;;8.23;2.80;;;22.00;99.90;;;;;;4238103;27;20205;-78
2022/06/09 09:33:04;;;;;;;10.25;3.22;;;22.00;99.90;;;;;;4237967;27;20746;-76
2022/06/09 09:35:12;;;;;;;12.23;3.33;;;22.00;99.90;;;;;;4239076;27;20265;-79
2022/06/09 09:37:24;;;;;;;18.17;3.10;;;22.00;99.90;;;;;;4240140;27;20273;-79
2022/06/09 09:39:40;;;;;;;10.65;3.40;;;22.00;99.90;;;;;;4238199;27;20221;-78
2022/06/09 09:41:42;;;;;;;13.18;3.50;;;22.00;99.90;;;;;;4237520;27;20258;-77
2022/06/09 09:43:45;;;;;;;13.73;3.03;;;21.80;99.90;;;;;;4238588;27;20213;-79
2022/06/09 09:45:50;;;;;;;13.15;3.30;;;21.90;99.90;;;;;;4235357;27;20205;-82
2022/06/09 09:47:57;;;;;;;14.32;3.42;;;21.80;99.90;;;;;;4241420;27;20220;-78
2022/06/09 09:50:06;;;;;;;17.45;4.00;;;21.80;99.90;;;;;;4232392;27;20289;-80
2022/06/09 09:52:32;;;;;;;15.00;3.45;;;21.80;99.90;;;;;;4236093;27;20217;-80
2022/06/09 09:54:39;;;;;;;12.07;3.60;;;21.70;99.90;;;;;;4236083;27;20258;-77
2022/06/09 09:56:42;;;;;;;14.27;3.30;;;21.70;99.90;;;;;;4237676;27;20739;-81
2022/06/09 09:58:57;;;;;;;11.80;3.50;;;21.80;99.90;;;;;;4239208;27;20656;-80
2022/06/09 10:01:03;;;;;;;13.80;3.55;;;21.80;99.90;;;;;;4236065;27;20364;-79
2022/06/09 10:10:28;;;;;;;9.77;3.47;;;21.90;99.90;;;;;;4236747;27;20236;-75
2022/06/09 10:12:33;;;;;;;13.23;3.25;;;22.00;99.90;;;;;;4233449;27;20261;-75
2022/06/09 10:14:42;;;;;;;11.95;3.10;;;22.10;99.90;;;;;;4236402;27;20274;-76
2022/06/09 10:16:51;;;;;;;13.07;2.90;;;22.20;99.90;;;;;;4231868;27;20345;-76
2022/06/09 10:18:56;;;;;;;11.27;3.05;;;22.20;99.90;;;;;;4237643;27;20257;-77
2022/06/09 10:21:07;;;;;;;9.40;2.90;;;22.30;99.90;;;;;;4235701;27;20282;-78
2022/06/09 10:23:45;;;;;;;10.25;2.90;;;22.20;99.90;;;;;;4232360;27;20273;-78
2022/06/09 10:25:55;;;;;;;10.63;2.47;;;22.20;99.90;;;;;;4222576;27;20573;-78
2022/06/09 10:28:02;;;;;;;10.95;2.80;;;22.20;99.90;;;;;;4242455;27;20257;-78
2022/06/09 10:30:12;;;;;;;7.03;2.60;;;22.30;99.90;;;;;;4239626;27;20262;-78
2022/06/09 10:32:22;;;;;;;11.15;2.60;;;22.30;99.90;;;;;;4239612;27;20266;-75
2022/06/09 10:34:38;;;;;;;7.40;2.47;;;22.40;99.90;;;;;;4236423;27;20299;-77
2022/06/09 10:36:50;;;;;;;9.43;2.45;;;22.40;99.90;;;;;;4239459;27;20277;-79
2022/06/09 10:38:57;;;;;;;10.15;2.38;;;22.50;99.90;;;;;;4241791;28;20665;-77
2022/06/09 10:41:04;;;;;;;9.38;2.67;;;22.60;99.90;;;;;;4235444;27;20204;-77
2022/06/09 10:43:17;;;;;;;6.28;2.40;;;22.60;99.90;;;;;;4238528;28;20221;-77
2022/06/09 10:45:26;;;;;;;8.48;2.70;;;22.70;99.90;;;;;;4233434;27;20209;-77
2022/06/09 10:55:16;;;;;;;16.70;2.85;;;22.70;99.90;;;;;;4233203;27;21297;-80
2022/06/09 10:57:27;;;;;;;11.70;2.80;;;22.70;99.90;;;;;;4237277;27;20217;-80
2022/06/09 10:59:34;;;;;;;9.50;2.53;;;22.80;99.90;;;;;;4240199;28;20217;-79
2022/06/09 11:01:37;;;;;;;7.63;2.33;;;22.80;99.90;;;;;;4240137;28;20255;-77
2022/06/09 11:03:48;;;;;;;10.40;2.70;;;22.80;99.90;;;;;;4235600;27;20686;-78
2022/06/09 11:06:08;;;;;;;7.20;2.55;;;22.80;99.90;;;;;;4239821;27;20265;-77
2022/06/09 11:08:22;;;;;;;10.98;2.40;;;22.80;99.90;;;;;;4238560;27;20229;-77
2022/06/09 11:10:32;;;;;;;10.52;2.53;;;22.90;99.90;;;;;;4237269;28;20216;-76
2022/06/09 11:12:50;;;;;;;6.15;1.83;;;22.80;99.90;;;;;;4238630;28;20201;-76